createdAt,value
2023-01-09T00:02:16.201Z,98604.72
2023-01-09T00:05:01.063Z,98606.09
2023-01-09T00:07:46.644Z,98602.78
2023-01-09T00:10:31.988Z,98616.50
2023-01-09T00:13:18.226Z,98616.38
2023-01-09T00:16:05.373Z,98624.75
2023-01-09T00:18:50.942Z,98624.75
2023-01-09T00:21:36.996Z,98624.84
2023-01-09T00:24:23.336Z,98636.66
2023-01-09T00:27:08.632Z,98649.69
2023-01-09T00:29:53.817Z,98643.78
2023-01-09T00:32:38.784Z,98651.47
2023-01-09T00:35:26.674Z,98653.38
2023-01-09T00:38:11.696Z,98660.34
2023-01-09T00:40:57.123Z,98665.69
2023-01-09T00:43:51.274Z,98656.06
2023-01-09T00:46:39.604Z,98678.97
2023-01-09T00:49:25.470Z,98680.88
2023-01-09T00:52:13.536Z,98679.50
2023-01-09T00:54:59.592Z,98686.59
2023-01-09T00:57:45.202Z,98696.44
2023-01-09T01:00:30.369Z,98704.81
2023-01-09T01:03:15.380Z,98697.81
2023-01-09T01:06:19.279Z,98702.31
2023-01-09T01:09:04.400Z,98722.22
2023-01-09T01:11:49.442Z,98699.56
2023-01-09T01:14:36.932Z,98716.19
2023-01-09T01:17:21.949Z,98721.41
2023-01-09T01:20:11.041Z,98727.41
2023-01-09T01:22:56.215Z,98742.44
2023-01-09T01:25:42.163Z,98759.56
2023-01-09T01:28:27.105Z,98767.38
2023-01-09T01:31:17.850Z,98766.31
2023-01-09T01:34:03.400Z,98774.38
2023-01-09T01:36:48.546Z,98783.97
2023-01-09T01:39:33.700Z,98786.94
2023-01-09T01:42:19.072Z,98778.50
2023-01-09T01:45:20.412Z,98797.03
2023-01-09T01:48:12.667Z,98818.22
2023-01-09T01:51:05.838Z,98820.13
2023-01-09T01:53:59.787Z,98827.81
2023-01-09T01:56:48.994Z,98831.13
2023-01-09T01:59:40.821Z,98842.19
2023-01-09T02:02:29.349Z,98847.41
2023-01-09T02:05:14.668Z,98863.88
2023-01-09T02:07:59.959Z,98870.97
2023-01-09T02:10:45.886Z,98875.66
2023-01-09T02:13:34.500Z,98876.88
2023-01-09T02:16:29.411Z,98881.81
2023-01-09T02:19:30.056Z,98884.94
2023-01-09T02:22:43.561Z,98904.28
2023-01-09T02:26:19.569Z,98911.63
2023-01-09T02:29:43.914Z,98924.63
2023-01-09T02:32:49.408Z,98929.59
2023-01-09T02:35:43.841Z,98930.56
2023-01-09T02:38:58.109Z,98937.91
2023-01-09T02:42:04.115Z,98953.75
2023-01-09T02:44:50.549Z,98955.66
2023-01-09T02:47:41.363Z,98956.97
2023-01-09T02:50:41.823Z,98964.06
2023-01-09T02:53:39.254Z,98952.88
2023-01-09T02:56:51.797Z,98965.16
2023-01-09T02:59:40.086Z,98959.88
2023-01-09T03:02:40.871Z,98976.75
2023-01-09T03:05:33.858Z,98997.31
2023-01-09T03:08:27.553Z,98990.31
2023-01-09T03:11:12.901Z,99006.97
2023-01-09T03:14:05.357Z,99010.66
2023-01-09T03:16:56.717Z,98991.75
2023-01-09T03:19:45.008Z,99006.03
2023-01-09T03:22:30.178Z,98994.81
2023-01-09T03:25:18.223Z,99016.69
2023-01-09T03:28:09.346Z,99022.34
2023-01-09T03:30:54.460Z,99015.56
2023-01-09T03:33:39.987Z,99038.16
2023-01-09T03:36:25.367Z,99014.75
2023-01-09T03:39:10.874Z,99029.88
2023-01-09T03:41:56.129Z,99037.22
2023-01-09T03:44:41.321Z,99021.47
2023-01-09T03:47:26.259Z,99047.00
2023-01-09T03:50:11.577Z,99052.19
2023-01-09T03:52:57.075Z,99057.84
2023-01-09T03:55:52.287Z,99059.97
2023-01-09T03:58:37.248Z,99065.75
2023-01-09T04:01:22.252Z,99081.47
2023-01-09T04:04:07.373Z,99080.75
2023-01-09T04:06:52.647Z,99088.44
2023-01-09T04:09:38.038Z,99092.31
2023-01-09T04:12:23.092Z,99094.31
2023-01-09T04:15:08.730Z,99098.69
2023-01-09T04:17:53.840Z,99084.84
2023-01-09T04:20:39.019Z,99102.44
2023-01-09T04:23:24.243Z,99111.41
2023-01-09T04:26:09.080Z,99090.47
2023-01-09T04:28:54.388Z,99101.91
2023-01-09T04:31:39.326Z,99122.25
2023-01-09T04:34:25.785Z,99123.06
2023-01-09T04:37:11.186Z,99126.72
2023-01-09T04:39:56.297Z,99126.81
2023-01-09T04:42:41.812Z,99113.69
2023-01-09T04:45:26.959Z,99133.78
2023-01-09T04:48:12.087Z,99142.41
2023-01-09T04:50:56.974Z,99120.53
2023-01-09T04:53:42.006Z,99137.19
2023-01-09T04:56:26.989Z,99143.22
2023-01-09T04:59:12.219Z,99153.84
2023-01-09T05:01:58.391Z,99158.19
2023-01-09T05:04:43.620Z,99156.78
2023-01-09T05:07:28.608Z,99164.34
2023-01-09T05:10:13.662Z,99165.28
2023-01-09T05:12:58.878Z,99174.97
2023-01-09T05:15:43.853Z,99164.28
2023-01-09T05:18:28.794Z,99175.16
2023-01-09T05:21:14.753Z,99188.13
2023-01-09T05:23:59.886Z,99198.34
2023-01-09T05:26:45.278Z,99198.53
2023-01-09T05:29:30.112Z,99203.63
2023-01-09T05:32:15.128Z,99193.91
2023-01-09T05:35:00.473Z,99213.91
2023-01-09T05:37:46.551Z,99203.72
2023-01-09T05:40:38.573Z,99192.44
2023-01-09T05:43:25.358Z,99225.13
2023-01-09T05:46:10.747Z,99220.47
2023-01-09T05:48:55.776Z,99232.19
2023-01-09T05:51:40.886Z,99238.31
2023-01-09T05:54:26.128Z,99237.47
2023-01-09T05:57:11.356Z,99240.06
2023-01-09T05:59:56.253Z,99223.00
2023-01-09T06:02:41.442Z,99244.97
2023-01-09T06:05:26.575Z,99228.28
2023-01-09T06:08:11.648Z,99247.47
2023-01-09T06:10:56.819Z,99254.44
2023-01-09T06:13:41.923Z,99261.41
2023-01-09T06:16:26.993Z,99254.31
2023-01-09T06:19:11.961Z,99268.03
2023-01-09T06:21:56.929Z,99276.63
2023-01-09T06:24:41.757Z,99280.19
2023-01-09T06:27:26.783Z,99280.91
2023-01-09T06:30:12.483Z,99291.38
2023-01-09T06:32:57.480Z,99283.72
2023-01-09T06:35:42.684Z,99297.41
2023-01-09T06:38:27.648Z,99305.31
2023-01-09T06:41:13.193Z,99309.78
2023-01-09T06:43:58.434Z,99292.34
2023-01-09T06:46:43.539Z,99316.00
2023-01-09T06:49:28.633Z,99333.66
2023-01-09T06:52:13.955Z,99310.59
2023-01-09T06:54:59.166Z,99330.03
2023-01-09T06:57:44.472Z,99334.41
2023-01-09T07:00:31.337Z,99343.75
2023-01-09T07:03:22.010Z,99359.22
2023-01-09T07:06:07.559Z,99350.91
2023-01-09T07:08:52.940Z,99353.31
2023-01-09T07:11:38.346Z,99332.09
2023-01-09T07:14:23.628Z,99358.69
2023-01-09T07:17:12.096Z,99366.38
2023-01-09T07:19:57.119Z,99363.88
2023-01-09T07:22:42.339Z,99354.53
2023-01-09T07:25:27.364Z,99358.69
2023-01-09T07:28:12.388Z,99366.38
2023-01-09T07:31:02.506Z,99375.13
2023-01-09T07:33:47.836Z,99374.16
2023-01-09T07:36:32.844Z,99379.28
2023-01-09T07:39:18.239Z,99385.16
2023-01-09T07:42:03.544Z,99383.44
2023-01-09T07:44:48.808Z,99390.28
2023-01-09T07:47:33.890Z,99364.72
2023-01-09T07:50:19.541Z,99408.22
2023-01-09T07:53:04.920Z,99403.88
2023-01-09T07:55:49.874Z,99397.84
2023-01-09T07:58:35.143Z,99422.47
2023-01-09T08:01:20.490Z,99420.69
2023-01-09T08:04:05.740Z,99422.03
2023-01-09T08:06:50.923Z,99435.94
2023-01-09T08:09:35.836Z,99461.19
2023-01-09T08:12:20.882Z,99463.06
2023-01-09T08:15:07.099Z,99472.00
2023-01-09T08:17:52.102Z,99481.44
2023-01-09T08:20:37.108Z,99484.97
2023-01-09T08:23:21.989Z,99458.75
2023-01-09T08:26:07.109Z,99501.78
2023-01-09T08:28:52.443Z,99501.69
2023-01-09T08:31:37.825Z,99513.00
2023-01-09T08:34:23.088Z,99487.41
2023-01-09T08:37:07.999Z,99516.53
2023-01-09T08:39:53.459Z,99502.59
2023-01-09T08:42:57.069Z,99533.03
2023-01-09T08:46:00.911Z,99537.50
2023-01-09T08:48:47.917Z,99531.88
2023-01-09T08:51:33.036Z,99551.41
2023-01-09T08:54:18.276Z,99561.78
2023-01-09T08:57:03.333Z,99558.91
2023-01-09T08:59:48.540Z,99558.72
2023-01-09T09:02:33.874Z,99562.97
2023-01-09T09:05:19.100Z,99567.13
2023-01-09T09:08:04.671Z,99574.81
2023-01-09T09:10:49.528Z,99579.81
2023-01-09T09:13:34.572Z,99567.94
2023-01-09T09:16:19.680Z,99577.13
2023-01-09T09:19:05.028Z,99571.19
2023-01-09T09:21:50.316Z,99594.50
2023-01-09T09:24:35.625Z,99598.47
2023-01-09T09:27:20.699Z,99595.84
2023-01-09T09:30:06.854Z,99614.28
2023-01-09T09:32:51.798Z,99605.97
2023-01-09T09:35:37.256Z,99617.22
2023-01-09T09:38:22.494Z,99629.25
2023-01-09T09:41:51.166Z,99629.78
2023-01-09T09:44:54.729Z,99630.13
2023-01-09T09:47:59.104Z,99631.59
2023-01-09T09:51:19.900Z,99639.94
2023-01-09T09:54:17.045Z,99608.59
2023-01-09T09:57:04.445Z,99637.88
2023-01-09T09:59:51.551Z,99665.53
2023-01-09T10:02:47.374Z,99663.56
2023-01-09T10:05:40.628Z,99661.66
2023-01-09T10:09:03.667Z,99681.19
2023-01-09T10:12:31.363Z,99689.72
2023-01-09T10:15:38.398Z,99692.31
2023-01-09T10:18:48.707Z,99694.63
2023-01-09T10:21:33.548Z,99703.16
2023-01-09T10:24:41.914Z,99712.41
2023-01-09T10:27:58.561Z,99724.28
2023-01-09T10:31:13.363Z,99731.16
2023-01-09T10:34:26.207Z,99738.44
2023-01-09T10:37:20.144Z,99741.47
2023-01-09T10:40:13.697Z,99734.06
2023-01-09T10:43:09.467Z,99756.88
2023-01-09T10:46:00.030Z,99760.94
2023-01-09T10:48:52.438Z,99765.00
2023-01-09T10:52:00.849Z,99768.44
2023-01-09T10:55:04.070Z,99774.25
2023-01-09T10:57:59.556Z,99763.97
2023-01-09T11:00:46.603Z,99795.94
2023-01-09T11:03:31.704Z,99789.59
2023-01-09T11:06:23.519Z,99810.22
2023-01-09T11:09:08.532Z,99811.13
2023-01-09T11:11:53.504Z,99805.00
2023-01-09T11:14:38.777Z,99814.25
2023-01-09T11:17:27.549Z,99814.03
2023-01-09T11:20:15.770Z,99815.50
2023-01-09T11:23:00.889Z,99819.59
2023-01-09T11:25:53.524Z,99826.16
2023-01-09T11:28:38.494Z,99818.84
2023-01-09T11:31:25.002Z,99820.50
2023-01-09T11:34:17.870Z,99828.53
2023-01-09T11:37:04.558Z,99821.84
2023-01-09T11:39:49.863Z,99837.16
2023-01-09T11:42:53.386Z,99853.41
2023-01-09T11:45:53.215Z,99848.94
2023-01-09T11:48:57.010Z,99838.75
2023-01-09T11:51:43.310Z,99866.53
2023-01-09T11:54:37.831Z,99866.31
2023-01-09T11:57:24.626Z,99871.63
2023-01-09T12:00:28.328Z,99860.41
2023-01-09T12:03:32.175Z,99887.69
2023-01-09T12:06:17.097Z,99883.72
2023-01-09T12:09:05.047Z,99895.50
2023-01-09T12:11:59.932Z,99894.28
2023-01-09T12:14:57.395Z,99903.63
2023-01-09T12:17:51.571Z,99911.16
2023-01-09T12:21:05.343Z,99874.84
2023-01-09T12:24:25.568Z,99917.56
2023-01-09T12:27:41.726Z,99903.97
2023-01-09T12:30:48.619Z,99922.13
2023-01-09T12:33:49.283Z,99926.97
2023-01-09T12:36:50.983Z,99911.66
2023-01-09T12:39:52.228Z,99932.28
2023-01-09T12:43:04.979Z,99951.50
2023-01-09T12:46:02.244Z,99953.63
2023-01-09T12:48:59.872Z,99954.94
2023-01-09T12:51:57.300Z,99963.09
2023-01-09T12:55:13.432Z,99949.34
2023-01-09T12:58:04.090Z,99982.81
2023-01-09T13:00:54.231Z,99969.44
2023-01-09T13:03:48.013Z,99971.75
2023-01-09T13:06:35.532Z,99985.69
2023-01-09T13:09:37.792Z,99990.19
2023-01-09T13:12:25.199Z,99996.00
2023-01-09T13:15:32.083Z,100004.06
2023-01-09T13:18:27.337Z,99995.09
2023-01-09T13:21:13.586Z,100003.50
2023-01-09T13:24:13.551Z,99996.09
2023-01-09T13:27:06.922Z,100015.56
2023-01-09T13:30:00.753Z,100018.13
2023-01-09T13:33:07.857Z,100047.75
2023-01-09T13:35:55.999Z,100043.38
2023-01-09T13:38:40.879Z,100048.91
2023-01-09T13:41:46.292Z,100055.03
2023-01-09T13:44:33.661Z,100041.16
2023-01-09T13:47:28.081Z,100037.34
2023-01-09T13:50:27.339Z,100048.16
2023-01-09T13:53:18.707Z,100042.72
2023-01-09T13:56:06.656Z,100045.88
2023-01-09T13:58:54.599Z,100048.91
2023-01-09T14:01:42.320Z,100075.31
2023-01-09T14:04:40.671Z,100080.81
2023-01-09T14:07:49.122Z,100094.19
2023-01-09T14:10:45.871Z,100096.03
2023-01-09T14:13:38.041Z,100106.06
2023-01-09T14:16:27.009Z,100112.00
2023-01-09T14:19:15.497Z,100120.16
2023-01-09T14:22:01.300Z,100119.19
2023-01-09T14:24:49.379Z,100122.66
2023-01-09T14:28:23.696Z,100147.09
2023-01-09T14:31:26.084Z,100146.06
2023-01-09T14:34:39.000Z,100154.50
2023-01-09T14:37:27.136Z,100155.88
2023-01-09T14:40:23.495Z,100170.69
2023-01-09T14:43:26.216Z,100174.44
2023-01-09T14:46:16.042Z,100189.25
2023-01-09T14:49:10.013Z,100187.56
2023-01-09T14:51:56.162Z,100209.50
2023-01-09T14:54:43.669Z,100218.38
2023-01-09T14:57:31.240Z,100206.31
2023-01-09T15:00:18.633Z,100226.56
2023-01-09T15:03:04.043Z,100242.44
2023-01-09T15:05:51.528Z,100246.19
2023-01-09T15:08:36.822Z,100246.06
2023-01-09T15:11:22.122Z,100250.94
2023-01-09T15:14:10.225Z,100259.94
2023-01-09T15:16:55.480Z,100251.63
2023-01-09T15:19:45.090Z,100278.06
2023-01-09T15:22:36.005Z,100282.09
2023-01-09T15:25:38.100Z,100300.16
2023-01-09T15:28:32.099Z,100302.69
2023-01-09T15:31:22.243Z,100308.81
2023-01-09T15:34:09.477Z,100319.44
2023-01-09T15:36:55.315Z,100321.28
2023-01-09T15:39:40.645Z,100349.25
2023-01-09T15:42:47.322Z,100351.88
2023-01-09T15:45:45.065Z,100359.84
2023-01-09T15:48:33.297Z,100369.00
2023-01-09T15:51:18.443Z,100356.16
2023-01-09T15:54:04.163Z,100375.91
2023-01-09T15:56:49.347Z,100382.03
2023-01-09T15:59:34.591Z,100380.72
2023-01-09T16:02:40.645Z,100390.13
2023-01-09T16:05:25.925Z,100384.81
2023-01-09T16:08:42.242Z,100398.97
2023-01-09T16:11:30.990Z,100400.84
2023-01-09T16:14:23.031Z,100407.91
2023-01-09T16:17:15.487Z,100421.31
2023-01-09T16:20:15.925Z,100430.25
2023-01-09T16:23:02.759Z,100437.31
2023-01-09T16:25:48.076Z,100445.50
2023-01-09T16:28:33.414Z,100455.25
2023-01-09T16:31:20.447Z,100463.16
2023-01-09T16:34:07.227Z,100468.47
2023-01-09T16:36:52.503Z,100483.44
2023-01-09T16:39:38.705Z,100488.06
2023-01-09T16:42:42.345Z,100483.81
2023-01-09T16:45:38.833Z,100491.13
2023-01-09T16:48:24.109Z,100505.50
2023-01-09T16:51:18.730Z,100514.22
2023-01-09T16:54:03.986Z,100519.03
2023-01-09T16:56:52.396Z,100531.72
2023-01-09T16:59:37.957Z,100542.81
2023-01-09T17:02:23.155Z,100545.78
2023-01-09T17:05:08.426Z,100558.63
2023-01-09T17:07:54.569Z,100558.63
2023-01-09T17:10:39.723Z,100562.88
2023-01-09T17:13:25.813Z,100565.41
2023-01-09T17:16:11.230Z,100563.66
2023-01-09T17:18:56.667Z,100567.38
2023-01-09T17:21:41.857Z,100561.81
2023-01-09T17:24:46.004Z,100570.22
2023-01-09T17:27:52.982Z,100580.53
2023-01-09T17:30:38.222Z,100587.31
2023-01-09T17:33:23.049Z,100585.06
2023-01-09T17:36:32.089Z,100596.50
2023-01-09T17:39:17.610Z,100596.72
2023-01-09T17:42:02.529Z,100602.19
2023-01-09T17:44:47.630Z,100608.47
2023-01-09T17:47:33.855Z,100614.69
2023-01-09T17:50:20.910Z,100616.53
2023-01-09T17:53:05.717Z,100607.78
2023-01-09T17:55:50.803Z,100635.16
2023-01-09T17:58:35.917Z,100627.25
2023-01-09T18:01:21.667Z,100639.50
2023-01-09T18:04:06.878Z,100640.50
2023-01-09T18:06:54.476Z,100636.25
2023-01-09T18:09:39.469Z,100631.03
2023-01-09T18:12:24.689Z,100608.72
2023-01-09T18:15:10.254Z,100647.03
2023-01-09T18:17:55.289Z,100649.56
2023-01-09T18:20:41.759Z,100654.78
2023-01-09T18:23:27.321Z,100647.03
2023-01-09T18:26:20.047Z,100637.38
2023-01-09T18:29:05.288Z,100622.09
2023-01-09T18:31:51.731Z,100641.06
2023-01-09T18:34:36.680Z,100660.69
2023-01-09T18:37:21.716Z,100637.19
2023-01-09T18:40:08.582Z,100657.53
2023-01-09T18:42:53.723Z,100665.47
2023-01-09T18:45:39.185Z,100667.31
2023-01-09T18:48:24.389Z,100665.34
2023-01-09T18:51:09.813Z,100665.63
2023-01-09T18:53:55.952Z,100706.94
2023-01-09T18:56:41.234Z,100685.81
2023-01-09T18:59:26.494Z,100702.97
2023-01-09T19:02:25.905Z,100710.19
2023-01-09T19:05:10.917Z,100720.84
2023-01-09T19:07:56.740Z,100717.16
2023-01-09T19:10:42.069Z,100731.31
2023-01-09T19:13:32.558Z,100739.88
2023-01-09T19:16:17.880Z,100735.66
2023-01-09T19:19:03.383Z,100731.59
2023-01-09T19:21:48.470Z,100744.44
2023-01-09T19:24:33.734Z,100754.16
2023-01-09T19:27:18.985Z,100760.25
2023-01-09T19:30:04.923Z,100749.59
2023-01-09T19:32:50.068Z,100767.41
2023-01-09T19:35:35.044Z,100765.66
2023-01-09T19:38:22.544Z,100773.53
2023-01-09T19:41:14.560Z,100774.53
2023-01-09T19:44:00.143Z,100783.16
2023-01-09T19:46:45.039Z,100782.19
2023-01-09T19:49:37.965Z,100750.38
2023-01-09T19:52:23.269Z,100798.91
2023-01-09T19:55:10.991Z,100804.25
2023-01-09T19:57:56.223Z,100814.56
2023-01-09T20:00:41.156Z,100799.53
2023-01-09T20:03:26.181Z,100826.84
2023-01-09T20:06:14.426Z,100827.78
2023-01-09T20:09:01.918Z,100830.44
2023-01-09T20:11:46.972Z,100817.28
2023-01-09T20:14:32.043Z,100844.53
2023-01-09T20:17:17.868Z,100827.69
2023-01-09T20:20:03.072Z,100841.31
2023-01-09T20:22:48.305Z,100842.09
2023-01-09T20:25:33.323Z,100834.44
2023-01-09T20:28:18.299Z,100844.84
2023-01-09T20:31:05.682Z,100849.06
2023-01-09T20:33:51.180Z,100849.19
2023-01-09T20:36:36.425Z,100867.38
2023-01-09T20:39:21.589Z,100858.78
2023-01-09T20:42:06.726Z,100871.69
2023-01-09T20:44:52.115Z,100885.47
2023-01-09T20:47:37.164Z,100884.81
2023-01-09T20:50:31.233Z,100889.19
2023-01-09T20:53:16.541Z,100872.41
2023-01-09T20:56:03.359Z,100899.78
2023-01-09T20:58:48.383Z,100890.44
2023-01-09T21:01:34.824Z,100905.75
2023-01-09T21:04:20.418Z,100908.34
2023-01-09T21:07:05.735Z,100914.16
2023-01-09T21:09:51.045Z,100933.47
2023-01-09T21:12:36.267Z,100939.53
2023-01-09T21:15:21.708Z,100932.44
2023-01-09T21:18:06.954Z,100935.09
2023-01-09T21:20:52.156Z,100925.38
2023-01-09T21:23:37.505Z,100957.84
2023-01-09T21:26:27.358Z,100944.38
2023-01-09T21:29:12.982Z,100963.31
2023-01-09T21:31:58.468Z,100951.59
2023-01-09T21:34:43.595Z,100971.97
2023-01-09T21:37:29.920Z,100976.53
2023-01-09T21:40:17.149Z,100978.16
2023-01-09T21:43:20.633Z,100984.09
2023-01-09T21:46:24.446Z,100967.19
2023-01-09T21:49:09.657Z,100981.06
2023-01-09T21:51:55.151Z,100997.94
2023-01-09T21:54:41.645Z,100987.88
2023-01-09T21:57:26.689Z,100977.72
2023-01-09T22:00:12.444Z,100977.72
2023-01-09T22:02:58.982Z,100989.78
2023-01-09T22:05:44.108Z,101012.88
2023-01-09T22:08:29.065Z,101022.50
2023-01-09T22:11:16.091Z,101023.41
2023-01-09T22:14:01.502Z,101043.28
2023-01-09T22:16:47.060Z,101036.50
2023-01-09T22:19:32.481Z,101047.69
2023-01-09T22:22:17.347Z,101045.09
2023-01-09T22:25:03.617Z,101035.19
2023-01-09T22:27:48.949Z,101058.22
2023-01-09T22:30:34.147Z,101062.47
2023-01-09T22:33:18.939Z,101051.72
2023-01-09T22:36:06.599Z,101073.13
2023-01-09T22:38:56.571Z,101066.66
2023-01-09T22:41:41.845Z,101084.66
2023-01-09T22:44:27.193Z,101067.97
2023-01-09T22:47:12.431Z,101076.44
2023-01-09T22:49:57.325Z,101077.31
2023-01-09T22:52:42.379Z,101093.53
2023-01-09T22:55:27.575Z,101109.81
2023-01-09T22:58:12.545Z,101090.38
2023-01-09T23:00:58.464Z,101103.47
2023-01-09T23:03:43.584Z,101101.84
2023-01-09T23:06:28.624Z,101117.06
2023-01-09T23:09:13.877Z,101105.31
2023-01-09T23:12:02.012Z,101131.66
2023-01-09T23:14:46.766Z,101126.56
2023-01-09T23:17:31.841Z,101125.75
2023-01-09T23:20:16.894Z,101137.13
2023-01-09T23:23:02.099Z,101139.84
2023-01-09T23:25:56.275Z,101109.53
2023-01-09T23:28:41.481Z,101134.78
2023-01-09T23:31:26.520Z,101134.78
2023-01-09T23:34:22.896Z,101134.91
2023-01-09T23:37:09.550Z,101137.75
2023-01-09T23:39:54.986Z,101138.50
2023-01-09T23:42:58.778Z,101152.31
2023-01-09T23:45:45.419Z,101156.75
2023-01-09T23:48:30.418Z,101168.09
2023-01-09T23:51:15.686Z,101163.72
2023-01-09T23:54:00.564Z,101178.56
2023-01-09T23:56:45.655Z,101166.47
2023-01-09T23:59:30.833Z,101176.06
